createdAt,value
2017-11-15T00:00:20.285Z,21.60
2017-11-15T00:02:48.571Z,17.27
2017-11-15T00:05:16.868Z,9.80
2017-11-15T00:07:45.137Z,14.07
2017-11-15T00:10:13.417Z,14.40
2017-11-15T00:12:42.473Z,22.73
2017-11-15T00:15:12.535Z,17.70
2017-11-15T00:17:40.796Z,14.80
2017-11-15T00:20:09.059Z,15.90
2017-11-15T00:22:37.346Z,12.57
2017-11-15T00:25:05.759Z,17.17
2017-11-15T00:27:34.040Z,17.90
2017-11-15T00:30:02.301Z,15.70
2017-11-15T00:32:30.586Z,16.40
2017-11-15T00:34:58.839Z,17.47
2017-11-15T00:37:27.117Z,13.70
2017-11-15T00:39:55.385Z,18.80
2017-11-15T00:42:23.657Z,16.93
2017-11-15T00:44:51.949Z,15.20
2017-11-15T00:47:20.253Z,19.23
2017-11-15T00:49:49.285Z,20.73
2017-11-15T00:52:18.441Z,20.53
2017-11-15T00:54:46.688Z,18.10
2017-11-15T00:57:14.984Z,16.57
2017-11-15T00:59:43.270Z,13.20
2017-11-15T01:02:11.552Z,17.83
2017-11-15T01:04:39.825Z,18.60
2017-11-15T01:07:08.105Z,18.47
2017-11-15T01:09:36.378Z,14.83
2017-11-15T01:12:04.650Z,18.83
2017-11-15T01:14:32.905Z,16.60
2017-11-15T01:17:01.210Z,14.50
2017-11-15T01:19:29.465Z,17.60
2017-11-15T01:21:57.773Z,19.00
2017-11-15T01:24:26.868Z,22.07
2017-11-15T01:26:56.660Z,17.60
2017-11-15T01:29:24.941Z,17.40
2017-11-15T01:31:53.217Z,15.27
2017-11-15T01:34:21.504Z,14.43
2017-11-15T01:36:49.830Z,15.97
2017-11-15T01:39:18.160Z,16.27
2017-11-15T01:41:46.428Z,15.97
2017-11-15T01:44:14.686Z,14.93
2017-11-15T01:46:42.993Z,14.57
2017-11-15T01:49:11.249Z,14.80
2017-11-15T01:51:39.593Z,14.70
2017-11-15T01:54:07.888Z,13.23
2017-11-15T01:56:36.165Z,15.27
2017-11-15T01:59:04.505Z,12.20
2017-11-15T02:01:37.563Z,15.50
2017-11-15T02:04:05.937Z,14.90
2017-11-15T02:06:34.193Z,14.17
2017-11-15T02:09:02.543Z,20.93
2017-11-15T02:11:31.569Z,13.00
2017-11-15T02:13:59.847Z,14.27
2017-11-15T02:16:28.097Z,15.53
2017-11-15T02:18:56.389Z,20.23
2017-11-15T02:21:24.642Z,19.07
2017-11-15T02:23:53.694Z,16.60
2017-11-15T02:26:21.961Z,18.93
2017-11-15T02:28:50.359Z,15.23
2017-11-15T02:31:18.731Z,15.50
2017-11-15T02:33:47.012Z,15.90
2017-11-15T02:36:15.267Z,15.27
2017-11-15T02:38:43.537Z,17.63
2017-11-15T02:41:11.836Z,18.00
2017-11-15T02:43:40.120Z,17.33
2017-11-15T02:46:09.890Z,16.23
2017-11-15T02:48:38.169Z,16.77
2017-11-15T02:51:06.422Z,13.80
2017-11-15T02:53:35.584Z,18.90
2017-11-15T02:56:03.837Z,17.60
2017-11-15T02:58:32.104Z,19.90
2017-11-15T03:01:00.371Z,19.47
2017-11-15T03:03:28.648Z,20.43
2017-11-15T03:05:56.911Z,20.93
2017-11-15T03:08:25.996Z,19.53
2017-11-15T03:10:54.343Z,21.30
2017-11-15T03:13:22.615Z,20.23
2017-11-15T03:15:50.887Z,23.70
2017-11-15T03:18:19.160Z,25.13
2017-11-15T03:20:47.427Z,22.37
2017-11-15T03:23:15.737Z,27.63
2017-11-15T03:25:43.989Z,24.93
2017-11-15T03:28:12.254Z,22.93
2017-11-15T03:30:40.547Z,24.07
2017-11-15T03:33:08.810Z,24.47
2017-11-15T03:35:37.108Z,21.20
2017-11-15T03:38:05.373Z,26.23
2017-11-15T03:40:33.652Z,21.13
2017-11-15T03:43:01.905Z,30.40
2017-11-15T03:45:30.193Z,24.97
2017-11-15T03:47:58.454Z,23.63
2017-11-15T03:50:26.736Z,21.03
2017-11-15T03:52:54.990Z,26.17
2017-11-15T03:55:24.047Z,21.03
2017-11-15T03:57:52.316Z,23.53
2017-11-15T04:00:20.688Z,28.93
2017-11-15T04:02:48.957Z,21.50
2017-11-15T04:05:17.233Z,23.77
2017-11-15T04:07:45.494Z,21.23
2017-11-15T04:10:13.807Z,17.90
2017-11-15T04:12:42.065Z,20.17
2017-11-15T04:15:10.351Z,21.40
2017-11-15T04:17:38.603Z,22.33
2017-11-15T04:20:06.872Z,17.00
2017-11-15T04:22:35.126Z,18.30
2017-11-15T04:25:04.165Z,18.43
2017-11-15T04:27:32.457Z,16.60
2017-11-15T04:30:00.739Z,16.57
2017-11-15T04:32:29.003Z,20.07
2017-11-15T04:34:57.278Z,18.40
2017-11-15T04:37:25.547Z,19.83
2017-11-15T04:39:53.812Z,18.10
2017-11-15T04:42:22.073Z,22.23
2017-11-15T04:44:50.356Z,19.00
2017-11-15T04:47:18.622Z,18.67
2017-11-15T04:49:47.685Z,20.70
2017-11-15T04:52:15.937Z,23.30
2017-11-15T04:54:44.236Z,18.27
2017-11-15T04:57:12.517Z,20.73
2017-11-15T04:59:40.779Z,17.63
2017-11-15T05:02:09.064Z,20.87
2017-11-15T05:04:37.317Z,20.53
2017-11-15T05:07:05.609Z,17.40
2017-11-15T05:09:33.871Z,23.97
2017-11-15T05:12:02.148Z,23.70
2017-11-15T05:14:30.414Z,20.13
2017-11-15T05:16:58.694Z,23.50
2017-11-15T05:19:26.954Z,19.97
2017-11-15T05:21:55.250Z,24.00
2017-11-15T05:24:23.504Z,22.27
2017-11-15T05:26:51.780Z,21.23
2017-11-15T05:29:20.065Z,21.37
2017-11-15T05:31:48.351Z,22.90
2017-11-15T05:34:16.609Z,24.60
2017-11-15T05:36:44.938Z,25.93
2017-11-15T05:39:13.205Z,21.80
2017-11-15T05:41:41.473Z,19.43
2017-11-15T05:44:09.737Z,29.90
2017-11-15T05:46:38.041Z,24.47
2017-11-15T05:49:06.302Z,21.40
2017-11-15T05:51:34.705Z,19.60
2017-11-15T05:54:03.080Z,19.23
2017-11-15T05:56:31.364Z,22.50
2017-11-15T05:58:59.622Z,21.23
2017-11-15T06:01:27.911Z,24.40
2017-11-15T06:03:56.165Z,18.17
2017-11-15T06:06:24.456Z,22.80
2017-11-15T06:08:52.702Z,20.80
2017-11-15T06:11:21.018Z,21.27
2017-11-15T06:13:49.248Z,18.57
2017-11-15T06:16:17.690Z,18.70
2017-11-15T06:18:45.985Z,19.07
2017-11-15T06:21:14.431Z,19.17
2017-11-15T06:23:42.746Z,21.13
2017-11-15T06:26:12.592Z,22.57
2017-11-15T06:28:40.850Z,26.80
2017-11-15T06:31:09.921Z,16.60
2017-11-15T06:33:38.208Z,18.57
2017-11-15T06:36:06.440Z,21.93
2017-11-15T06:38:34.726Z,22.27
2017-11-15T06:41:02.990Z,17.73
2017-11-15T06:43:31.270Z,20.40
2017-11-15T06:45:59.572Z,20.23
2017-11-15T06:48:27.929Z,19.60
2017-11-15T06:50:56.204Z,25.27
2017-11-15T06:53:24.588Z,19.63
2017-11-15T06:55:52.841Z,17.40
2017-11-15T06:58:21.150Z,14.80
2017-11-15T07:00:49.398Z,21.30
2017-11-15T07:03:17.677Z,21.80
2017-11-15T07:05:45.941Z,22.47
2017-11-15T07:08:14.371Z,21.77
2017-11-15T07:10:42.634Z,19.63
2017-11-15T07:13:10.910Z,23.13
2017-11-15T07:15:39.178Z,20.20
2017-11-15T07:18:07.478Z,28.97
2017-11-15T07:20:35.747Z,20.87
2017-11-15T07:23:04.030Z,19.47
2017-11-15T07:25:32.289Z,21.10
2017-11-15T07:28:00.577Z,23.80
2017-11-15T07:30:28.924Z,20.93
2017-11-15T07:32:57.201Z,23.07
2017-11-15T07:35:25.489Z,22.73
2017-11-15T07:37:53.768Z,21.30
2017-11-15T07:40:22.026Z,25.10
2017-11-15T07:42:50.322Z,21.00
2017-11-15T07:45:18.577Z,22.70
2017-11-15T07:47:46.868Z,20.23
2017-11-15T07:50:15.125Z,23.83
2017-11-15T07:52:43.401Z,27.40
2017-11-15T07:55:11.665Z,21.53
2017-11-15T07:57:40.705Z,18.27
2017-11-15T08:00:08.969Z,19.03
2017-11-15T08:02:37.281Z,23.43
2017-11-15T08:05:05.665Z,18.67
2017-11-15T08:07:34.033Z,20.83
2017-11-15T08:10:02.285Z,23.17
2017-11-15T08:12:30.566Z,15.87
2017-11-15T08:14:58.918Z,22.37
2017-11-15T08:17:27.253Z,25.17
2017-11-15T08:19:57.045Z,22.23
2017-11-15T08:22:25.342Z,22.87
2017-11-15T08:24:53.610Z,19.57
2017-11-15T08:27:21.989Z,16.00
2017-11-15T08:29:50.241Z,18.17
2017-11-15T08:32:18.517Z,24.13
2017-11-15T08:34:46.820Z,21.50
2017-11-15T08:37:15.102Z,27.50
2017-11-15T08:39:43.480Z,24.67
2017-11-15T08:42:11.741Z,26.33
2017-11-15T08:44:40.030Z,25.53
2017-11-15T08:47:08.302Z,36.53
2017-11-15T08:49:36.587Z,28.27
2017-11-15T08:52:04.841Z,26.03
2017-11-15T08:54:33.117Z,25.93
2017-11-15T08:57:01.723Z,31.87
2017-11-15T08:59:30.810Z,29.83
2017-11-15T09:01:59.096Z,23.07
2017-11-15T09:04:28.890Z,26.97
2017-11-15T09:06:57.185Z,22.80
2017-11-15T09:09:25.554Z,27.33
2017-11-15T09:11:53.837Z,23.17
2017-11-15T09:14:22.114Z,24.93
2017-11-15T09:16:50.383Z,21.20
2017-11-15T09:19:18.778Z,36.77
2017-11-15T09:21:47.040Z,21.13
2017-11-15T09:24:15.316Z,19.77
2017-11-15T09:26:43.577Z,22.47
2017-11-15T09:29:11.882Z,18.80
2017-11-15T09:31:40.140Z,19.40
2017-11-15T09:34:08.417Z,20.80
2017-11-15T09:36:36.674Z,17.60
2017-11-15T09:39:04.958Z,19.00
2017-11-15T09:41:33.209Z,15.47
2017-11-15T09:44:02.257Z,11.67
2017-11-15T09:46:30.536Z,21.77
2017-11-15T09:48:58.817Z,17.87
2017-11-15T09:51:27.085Z,19.37
2017-11-15T09:53:55.476Z,18.40
2017-11-15T09:56:23.750Z,18.07
2017-11-15T09:58:52.050Z,19.63
2017-11-15T10:01:21.805Z,14.77
2017-11-15T10:03:50.090Z,17.50
2017-11-15T10:06:18.352Z,23.83
2017-11-15T10:08:46.626Z,17.70
2017-11-15T10:11:14.944Z,17.50
2017-11-15T10:13:43.215Z,21.10
2017-11-15T10:16:11.473Z,16.53
2017-11-15T10:18:39.749Z,15.30
2017-11-15T10:21:08.074Z,19.40
2017-11-15T10:23:36.425Z,14.70
2017-11-15T10:26:04.688Z,20.67
2017-11-15T10:28:33.005Z,19.73
2017-11-15T10:31:01.268Z,17.33
2017-11-15T10:33:29.544Z,15.40
2017-11-15T10:35:57.806Z,18.90
2017-11-15T10:38:26.100Z,15.37
2017-11-15T10:40:54.350Z,15.93
2017-11-15T10:43:22.629Z,20.80
2017-11-15T10:45:50.941Z,16.80
2017-11-15T10:48:19.213Z,15.07
2017-11-15T10:50:47.468Z,14.57
2017-11-15T10:53:15.747Z,15.17
2017-11-15T10:55:44.005Z,16.57
2017-11-15T10:58:12.276Z,11.93
2017-11-15T11:00:40.552Z,21.07
2017-11-15T11:03:08.812Z,20.53
2017-11-15T11:05:37.107Z,18.33
2017-11-15T11:08:05.422Z,19.50
2017-11-15T11:10:33.700Z,20.97
2017-11-15T11:13:01.964Z,19.40
2017-11-15T11:15:30.247Z,15.17
2017-11-15T11:17:58.505Z,17.20
2017-11-15T11:20:26.789Z,16.40
2017-11-15T11:22:55.044Z,20.03
2017-11-15T11:25:23.317Z,15.50
2017-11-15T11:27:51.591Z,12.37
2017-11-15T11:30:19.877Z,18.00
2017-11-15T11:32:48.133Z,15.30
2017-11-15T11:35:18.098Z,15.13
2017-11-15T11:37:46.355Z,14.93
2017-11-15T11:40:14.643Z,20.80
2017-11-15T11:42:43.041Z,14.00
2017-11-15T11:45:11.297Z,15.37
2017-11-15T11:47:39.569Z,16.23
2017-11-15T11:50:07.876Z,14.33
2017-11-15T11:52:36.125Z,16.37
2017-11-15T11:55:04.417Z,15.30
2017-11-15T11:57:32.693Z,16.90
2017-11-15T12:00:01.007Z,14.00
2017-11-15T12:02:29.250Z,13.07
2017-11-15T12:04:57.527Z,17.73
2017-11-15T12:07:25.794Z,12.87
2017-11-15T12:09:54.070Z,12.57
2017-11-15T12:12:22.328Z,18.50
2017-11-15T12:14:50.602Z,18.33
2017-11-15T12:17:18.862Z,12.17
2017-11-15T12:19:47.893Z,11.33
2017-11-15T12:22:16.141Z,10.80
2017-11-15T12:24:44.409Z,13.83
2017-11-15T12:27:13.425Z,14.70
2017-11-15T12:29:41.697Z,14.30
2017-11-15T12:32:09.954Z,10.93
2017-11-15T12:34:39.273Z,11.30
2017-11-15T12:37:07.517Z,13.60
2017-11-15T12:39:35.863Z,17.00
2017-11-15T12:42:05.183Z,17.67
2017-11-15T12:44:34.225Z,13.30
2017-11-15T12:47:02.540Z,10.70
2017-11-15T12:49:30.830Z,13.40
2017-11-15T12:52:00.595Z,15.30
2017-11-15T12:54:28.850Z,15.30
2017-11-15T12:56:58.025Z,12.47
2017-11-15T12:59:26.284Z,8.50
2017-11-15T13:01:54.569Z,15.03
2017-11-15T13:04:23.589Z,9.63
2017-11-15T13:06:52.664Z,10.80
2017-11-15T13:09:21.798Z,8.80
2017-11-15T13:11:50.073Z,8.57
2017-11-15T13:14:18.397Z,13.00
2017-11-15T13:16:46.669Z,12.07
2017-11-15T13:19:14.934Z,13.40
2017-11-15T13:21:43.221Z,14.70
2017-11-15T13:24:11.476Z,16.90
2017-11-15T13:26:39.761Z,9.67
2017-11-15T13:29:08.021Z,12.50
2017-11-15T13:31:36.308Z,10.60
2017-11-15T13:34:04.563Z,12.10
2017-11-15T13:36:32.875Z,12.33
2017-11-15T13:39:01.139Z,12.20
2017-11-15T13:41:29.526Z,10.57
2017-11-15T13:43:57.770Z,8.70
2017-11-15T13:46:26.046Z,10.10
2017-11-15T13:48:54.309Z,11.47
2017-11-15T13:51:22.589Z,8.83
2017-11-15T13:53:50.896Z,11.90
2017-11-15T13:56:19.166Z,11.63
2017-11-15T13:58:47.422Z,14.27
2017-11-15T14:01:15.689Z,10.60
2017-11-15T14:03:43.953Z,10.90
2017-11-15T14:06:13.611Z,11.50
2017-11-15T14:08:42.001Z,12.70
2017-11-15T14:11:10.242Z,11.30
2017-11-15T14:13:38.517Z,11.20
2017-11-15T14:16:06.773Z,21.40
2017-11-15T14:18:35.823Z,13.03
2017-11-15T14:21:04.081Z,11.00
2017-11-15T14:23:32.353Z,12.97
2017-11-15T14:26:00.606Z,11.57
2017-11-15T14:28:28.883Z,12.43
2017-11-15T14:30:57.207Z,11.10
2017-11-15T14:33:25.486Z,10.23
2017-11-15T14:35:53.752Z,12.50
2017-11-15T14:38:22.414Z,12.53
2017-11-15T14:40:50.652Z,11.50
2017-11-15T14:43:18.938Z,14.30
2017-11-15T14:45:47.954Z,13.90
2017-11-15T14:48:16.267Z,16.50
2017-11-15T14:50:44.521Z,14.77
2017-11-15T14:53:12.797Z,16.50
2017-11-15T14:55:41.053Z,13.60
2017-11-15T14:58:10.192Z,15.73
2017-11-15T15:00:38.486Z,17.20
2017-11-15T15:03:06.852Z,14.70
2017-11-15T15:05:35.127Z,15.20
2017-11-15T15:08:03.402Z,16.07
2017-11-15T15:10:31.653Z,12.13
2017-11-15T15:12:59.951Z,13.00
2017-11-15T15:15:28.197Z,16.00
2017-11-15T15:17:56.469Z,15.47
2017-11-15T15:20:24.731Z,17.23
2017-11-15T15:22:53.774Z,20.67
2017-11-15T15:25:22.793Z,15.53
2017-11-15T15:27:51.069Z,20.53
2017-11-15T15:30:19.390Z,14.43
2017-11-15T15:32:47.673Z,19.47
2017-11-15T15:35:15.929Z,19.07
2017-11-15T15:37:44.229Z,13.77
2017-11-15T15:40:12.482Z,16.87
2017-11-15T15:42:40.751Z,16.10
2017-11-15T15:45:09.056Z,17.70
2017-11-15T15:47:37.322Z,17.33
2017-11-15T15:50:05.579Z,14.90
2017-11-15T15:52:33.886Z,20.63
2017-11-15T15:55:02.133Z,20.63
2017-11-15T15:57:30.389Z,17.87
2017-11-15T15:59:58.699Z,22.10
2017-11-15T16:02:26.941Z,15.10
2017-11-15T16:04:56.086Z,17.13
2017-11-15T16:07:24.341Z,23.60
2017-11-15T16:09:52.650Z,19.23
2017-11-15T16:12:21.661Z,17.87
2017-11-15T16:14:49.934Z,13.40
2017-11-15T16:17:18.194Z,15.17
2017-11-15T16:19:47.257Z,19.20
2017-11-15T16:22:15.524Z,17.47
2017-11-15T16:24:43.829Z,16.83
2017-11-15T16:27:12.177Z,22.50
2017-11-15T16:29:40.467Z,17.00
2017-11-15T16:32:08.728Z,19.70
2017-11-15T16:34:37.017Z,15.17
2017-11-15T16:37:05.284Z,14.90
2017-11-15T16:39:33.666Z,17.87
2017-11-15T16:42:02.251Z,21.27
2017-11-15T16:44:31.324Z,15.60
2017-11-15T16:46:59.588Z,32.87
2017-11-15T16:49:27.870Z,19.93
2017-11-15T16:51:56.130Z,17.73
2017-11-15T16:54:24.410Z,18.40
2017-11-15T16:56:52.677Z,17.83
2017-11-15T16:59:21.009Z,19.57
2017-11-15T17:01:49.266Z,15.47
2017-11-15T17:04:17.558Z,19.10
2017-11-15T17:06:45.862Z,17.17
2017-11-15T17:09:14.139Z,15.60
2017-11-15T17:11:42.409Z,19.13
2017-11-15T17:14:11.476Z,20.17
2017-11-15T17:16:39.762Z,18.50
2017-11-15T17:19:08.021Z,16.83
2017-11-15T17:21:36.301Z,16.23
2017-11-15T17:24:04.566Z,19.27
2017-11-15T17:26:32.850Z,19.13
2017-11-15T17:29:01.145Z,16.33
2017-11-15T17:31:29.420Z,20.53
2017-11-15T17:33:57.680Z,17.30
2017-11-15T17:36:25.960Z,17.70
2017-11-15T17:38:54.255Z,24.23
2017-11-15T17:41:22.637Z,18.70
2017-11-15T17:43:50.892Z,19.00
2017-11-15T17:46:19.187Z,21.93
2017-11-15T17:48:47.453Z,17.00
2017-11-15T17:51:16.156Z,16.80
2017-11-15T17:53:44.446Z,20.20
2017-11-15T17:56:12.814Z,21.33
2017-11-15T17:58:41.074Z,21.87
2017-11-15T18:01:09.369Z,20.10
2017-11-15T18:03:37.613Z,19.70
2017-11-15T18:06:05.891Z,21.40
2017-11-15T18:08:34.160Z,22.43
2017-11-15T18:11:02.440Z,20.50
2017-11-15T18:13:30.722Z,15.37
2017-11-15T18:15:58.998Z,19.30
2017-11-15T18:18:27.255Z,20.43
2017-11-15T18:20:55.533Z,19.20
2017-11-15T18:23:23.810Z,15.93
2017-11-15T18:25:52.093Z,18.37
2017-11-15T18:28:20.361Z,21.50
2017-11-15T18:30:48.643Z,21.10
2017-11-15T18:33:16.924Z,20.20
2017-11-15T18:35:45.212Z,18.60
2017-11-15T18:38:13.487Z,18.70
2017-11-15T18:40:41.762Z,19.17
2017-11-15T18:43:10.036Z,18.37
2017-11-15T18:45:38.296Z,19.63
2017-11-15T18:48:06.585Z,19.53
2017-11-15T18:50:34.866Z,22.30
2017-11-15T18:53:03.121Z,19.10
2017-11-15T18:55:31.393Z,20.50
2017-11-15T18:57:59.650Z,23.70
2017-11-15T19:00:27.941Z,15.17
2017-11-15T19:02:56.253Z,20.40
2017-11-15T19:05:24.513Z,22.50
2017-11-15T19:07:52.793Z,20.70
2017-11-15T19:10:21.214Z,16.43
2017-11-15T19:12:49.501Z,18.30
2017-11-15T19:15:18.585Z,15.07
2017-11-15T19:17:46.864Z,14.40
2017-11-15T19:20:15.931Z,18.80
2017-11-15T19:22:44.198Z,19.13
2017-11-15T19:25:12.461Z,16.80
2017-11-15T19:27:40.740Z,23.40
2017-11-15T19:30:08.989Z,17.27
2017-11-15T19:32:38.066Z,18.60
2017-11-15T19:35:07.096Z,18.37
2017-11-15T19:37:35.407Z,17.23
2017-11-15T19:40:03.665Z,18.50
2017-11-15T19:42:31.950Z,21.53
2017-11-15T19:45:00.231Z,16.00
2017-11-15T19:47:28.493Z,19.33
2017-11-15T19:49:56.758Z,21.20
2017-11-15T19:52:25.049Z,21.37
2017-11-15T19:54:53.309Z,22.60
2017-11-15T19:57:21.626Z,23.57
2017-11-15T19:59:49.890Z,20.17
2017-11-15T20:02:18.185Z,24.13
2017-11-15T20:04:47.155Z,23.23
2017-11-15T20:07:15.437Z,17.80
2017-11-15T20:09:43.701Z,24.40
2017-11-15T20:12:12.027Z,23.80
2017-11-15T20:14:40.281Z,28.23
2017-11-15T20:17:08.545Z,23.33
2017-11-15T20:19:36.823Z,29.53
2017-11-15T20:22:05.093Z,28.13
2017-11-15T20:24:33.369Z,16.80
2017-11-15T20:27:01.629Z,26.63
2017-11-15T20:29:29.928Z,24.03
2017-11-15T20:31:58.188Z,17.93
2017-11-15T20:34:26.468Z,18.90
2017-11-15T20:36:54.725Z,21.03
2017-11-15T20:39:23.008Z,23.00
2017-11-15T20:41:51.277Z,23.77
2017-11-15T20:44:19.561Z,19.43
2017-11-15T20:46:47.822Z,22.37
2017-11-15T20:49:16.885Z,18.90
2017-11-15T20:51:45.149Z,18.33
2017-11-15T20:54:13.433Z,25.17
2017-11-15T20:56:42.334Z,20.27
2017-11-15T20:59:10.697Z,25.10
2017-11-15T21:01:38.962Z,20.50
2017-11-15T21:04:07.252Z,21.33
2017-11-15T21:06:35.534Z,29.17
2017-11-15T21:09:03.820Z,23.00
2017-11-15T21:11:32.086Z,20.30
2017-11-15T21:14:00.386Z,27.50
2017-11-15T21:16:29.423Z,25.97
2017-11-15T21:18:57.737Z,23.47
2017-11-15T21:21:26.001Z,26.30
2017-11-15T21:23:54.389Z,21.77
2017-11-15T21:26:22.648Z,25.97
2017-11-15T21:28:50.938Z,23.07
2017-11-15T21:31:19.216Z,24.03
2017-11-15T21:33:47.504Z,29.03
2017-11-15T21:36:15.764Z,30.17
2017-11-15T21:38:44.056Z,25.50
2017-11-15T21:41:12.437Z,32.83
2017-11-15T21:43:40.730Z,24.20
2017-11-15T21:46:08.993Z,25.10
2017-11-15T21:48:38.046Z,35.07
2017-11-15T21:51:06.348Z,28.47
2017-11-15T21:53:34.634Z,21.20
2017-11-15T21:56:03.031Z,26.20
2017-11-15T21:58:31.391Z,26.70
2017-11-15T22:00:59.653Z,28.40
2017-11-15T22:03:28.155Z,28.63
2017-11-15T22:05:56.433Z,31.27
2017-11-15T22:08:24.744Z,27.20
2017-11-15T22:10:53.771Z,30.27
2017-11-15T22:13:22.056Z,31.37
2017-11-15T22:15:50.357Z,33.67
2017-11-15T22:18:18.839Z,32.80
2017-11-15T22:20:47.218Z,28.50
2017-11-15T22:23:15.599Z,34.07
2017-11-15T22:25:43.877Z,32.00
2017-11-15T22:28:12.144Z,24.83
2017-11-15T22:30:40.438Z,29.07
2017-11-15T22:33:08.696Z,33.87
2017-11-15T22:35:36.997Z,23.13
2017-11-15T22:38:05.248Z,34.70
2017-11-15T22:40:33.637Z,27.10
2017-11-15T22:43:02.038Z,24.83
2017-11-15T22:45:30.323Z,27.93
2017-11-15T22:47:59.353Z,33.20
2017-11-15T22:50:27.636Z,22.60
2017-11-15T22:52:55.905Z,27.37
2017-11-15T22:55:24.195Z,27.60
2017-11-15T22:57:52.497Z,25.97
2017-11-15T23:00:20.777Z,23.73
2017-11-15T23:02:49.261Z,23.63
2017-11-15T23:05:18.540Z,23.10
2017-11-15T23:07:46.798Z,29.23
2017-11-15T23:10:15.108Z,30.37
2017-11-15T23:12:43.383Z,22.07
2017-11-15T23:15:11.661Z,23.93
2017-11-15T23:17:39.936Z,25.37
2017-11-15T23:20:08.250Z,25.60
2017-11-15T23:22:37.280Z,21.10
2017-11-15T23:25:05.544Z,27.60
2017-11-15T23:27:33.855Z,28.13
2017-11-15T23:30:02.150Z,29.97
2017-11-15T23:32:30.424Z,23.63
2017-11-15T23:34:58.702Z,22.70
2017-11-15T23:37:27.077Z,24.53
2017-11-15T23:39:55.344Z,22.67
2017-11-15T23:42:23.634Z,26.63
2017-11-15T23:44:51.894Z,21.17
2017-11-15T23:47:20.186Z,29.53
2017-11-15T23:49:48.456Z,24.17
2017-11-15T23:52:16.745Z,18.93
2017-11-15T23:54:45.045Z,23.30
2017-11-15T23:57:14.128Z,18.00
2017-11-15T23:59:42.392Z,23.50
